ADDS METAR Data INFO
IDs: Format: Raw Decoded Include TAF

Data at: 0733 UTC 18 Oct 2017

KMJQ 180714Z AUTO 19009KT 10SM CLR 10/06 A2990 RMK AO2
KMJQ 180655Z AUTO 19007KT 10SM CLR 09/06 A2991 RMK AO2
KMJQ 180635Z AUTO 19007KT 10SM CLR 10/06 A2991 RMK AO2
KMJQ 180614Z AUTO 19007KT 10SM CLR 10/06 A2992 RMK AO2
KMJQ 180555Z AUTO 19008KT 10SM CLR 11/06 A2992 RMK AO2
KMJQ 180535Z AUTO 20009KT 10SM CLR 11/07 A2993 RMK AO2
KMJQ 180514Z AUTO 20009KT 10SM CLR 12/07 A2994 RMK AO2
KMJQ 180455Z AUTO 20008KT 10SM CLR 12/07 A2995 RMK AO2
KMJQ 180435Z AUTO 20008KT 10SM CLR 12/07 A2995 RMK AO2
KMJQ 180415Z AUTO 20008KT 10SM CLR 12/07 A2995 RMK AO2
KMJQ 180355Z AUTO 19007KT 10SM CLR 11/06 A2995 RMK AO2
KMJQ 180334Z AUTO 20008KT 10SM CLR 12/06 A2996 RMK AO2
KMJQ 180315Z AUTO 20008KT 10SM CLR 12/06 A2996 RMK AO2
KMJQ 180255Z AUTO 20007KT 10SM CLR 12/06 A2996 RMK AO2
KMJQ 180234Z AUTO 19008KT 10SM CLR 13/06 A2996 RMK AO2
KMJQ 180215Z AUTO 19008KT 10SM CLR 14/05 A2996 RMK AO2
KMJQ 180155Z AUTO 18007KT 10SM CLR 14/05 A2995 RMK AO2
KMJQ 180134Z AUTO 19007KT 10SM CLR 15/05 A2995 RMK AO2
KMJQ 180115Z AUTO 18007KT 10SM CLR 15/05 A2996 RMK AO2
KMJQ 180054Z AUTO 18007KT 10SM CLR 15/03 A2996 RMK AO2
KMJQ 180035Z AUTO 18006KT 10SM CLR 15/03 A2996 RMK AO2
KMJQ 180015Z AUTO 18005KT 10SM CLR 17/02 A2996 RMK AO2
KMJQ 172354Z AUTO 18004KT 10SM CLR 17/02 A2996 RMK AO2
KMJQ 172335Z AUTO 19005KT 10SM CLR 19/02 A2996 RMK AO2
KMJQ 172315Z AUTO 19004KT 10SM CLR 20/02 A2996 RMK AO2
KMJQ 172254Z AUTO 22004KT 10SM CLR 22/02 A2996 RMK AO2
KMJQ 172235Z AUTO 23004KT 10SM CLR 22/01 A2996 RMK AO2
KMJQ 172215Z AUTO 24007KT 10SM SCT120 23/01 A2996 RMK AO2
KMJQ 172154Z AUTO 22006KT 10SM CLR 23/01 A2996 RMK AO2
KMJQ 172135Z AUTO 26008KT 10SM CLR 23/00 A2997 RMK AO2
KMJQ 172114Z AUTO 25008KT 10SM CLR 23/00 A2997 RMK AO2
KMJQ 172055Z AUTO 26007KT 10SM CLR 23/00 A2997 RMK AO2
KMJQ 172035Z AUTO 26011G15KT 10SM CLR 23/00 A2998 RMK AO2
KMJQ 172014Z AUTO 26008KT 10SM CLR 23/00 A2998 RMK AO2
KMJQ 171955Z AUTO 23009KT 10SM CLR 23/01 A2999 RMK AO2
KMJQ 171935Z AUTO 23010G15KT 10SM CLR 23/01 A3000 RMK AO2
KMJQ 171914Z AUTO 23011KT 10SM CLR 23/02 A3001 RMK AO2
KMJQ 171855Z AUTO 23008G14KT 10SM CLR 23/02 A3001 RMK AO2
KMJQ 171834Z AUTO 24007KT 10SM CLR 23/03 A3002 RMK AO2
KMJQ 171815Z AUTO 25007KT 10SM CLR 22/02 A3003 RMK AO2
KMJQ 171755Z AUTO 23004KT 10SM CLR 22/04 A3004 RMK AO2
KMJQ 171734Z AUTO 21004KT 10SM CLR 21/05 A3004 RMK AO2
KMJQ 171715Z AUTO 23007KT 10SM CLR 20/05 A3005 RMK AO2
KMJQ 171655Z AUTO 23006KT 10SM CLR 19/05 A3005 RMK AO2
KMJQ 171634Z AUTO 23007KT 10SM CLR 18/05 A3005 RMK AO2
KMJQ 171615Z AUTO 23007KT 10SM CLR 17/05 A3005 RMK AO2
KMJQ 171554Z AUTO 23006KT 10SM CLR 16/05 A3005 RMK AO2
KMJQ 171535Z AUTO 22009KT 10SM CLR 15/05 A3005 RMK AO2
KMJQ 171515Z AUTO 23008KT 10SM CLR 13/05 A3005 RMK AO2
KMJQ 171454Z AUTO 22007KT 10SM CLR 12/05 A3005 RMK AO2
KMJQ 171435Z AUTO 23008KT 10SM CLR 11/04 A3006 RMK AO2
KMJQ 171415Z AUTO 23007KT 10SM CLR 10/04 A3005 RMK AO2
KMJQ 171354Z AUTO 23006KT 10SM CLR 10/03 A3005 RMK AO2
KMJQ 171335Z AUTO 23005KT 10SM CLR 08/03 A3004 RMK AO2
KMJQ 171314Z AUTO 23006KT CLR 08/03 A3004 RMK AO2 PWINO
KMJQ 171255Z AUTO 24005KT SCT095 07/03 A3004 RMK AO2 PWINO
KMJQ 171235Z AUTO 24006KT SCT095 08/03 A3004 RMK AO2 PWINO
KMJQ 171215Z AUTO 23006KT CLR 07/03 A3003 RMK AO2 PWINO
KMJQ 171155Z AUTO 21004KT CLR 08/03 A3003 RMK AO2 PWINO
KMJQ 171134Z AUTO 22007KT CLR 08/03 A3003 RMK AO2 PWINO
KMJQ 171115Z AUTO 22005KT CLR 08/03 A3003 RMK AO2 PWINO
KMJQ 171055Z AUTO 22007KT SCT110 08/03 A3004 RMK AO2 PWINO
KMJQ 171034Z AUTO 23006KT SCT095 SCT120 08/03 A3004 RMK AO2 PWINO
KMJQ 171015Z AUTO 21006KT CLR 08/03 A3004 RMK AO2 PWINO
KMJQ 170955Z AUTO 22006KT CLR 09/03 A3004 RMK AO2 PWINO
KMJQ 170934Z AUTO 23006KT CLR 09/03 A3003 RMK AO2 PWINO
KMJQ 170915Z AUTO 22006KT CLR 08/03 A3003 RMK AO2 PWINO
KMJQ 170855Z AUTO 22007KT CLR 08/03 A3003 RMK AO2 PWINO
KMJQ 170834Z AUTO 22006KT CLR 09/03 A3003 RMK AO2 PWINO
KMJQ 170815Z AUTO 21007KT CLR 09/03 A3003 RMK AO2 PWINO
KMJQ 170755Z AUTO 22007KT CLR 10/03 A3003 RMK AO2 PWINO
KMJQ 170734Z AUTO 21007KT CLR 10/03 A3003 RMK AO2 PWINO
KMJQ 170723Z AUTO 22007KT CLR 10/03 A3003 RMK AO2 PWINO
KMJQ 170655Z AUTO 23008KT CLR 12/04 A3003 RMK AO2 PWINO
KMJQ 170600Z AUTO 23007KT CLR 11/03 A3002 RMK AO2 PWINO
KMJQ 170555Z AUTO 24006KT CLR 11/04 A3002 RMK AO2 PWINO
KMJQ 170554Z AUTO 23006KT CLR 11/03 A3002 RMK AO2 PWINO
KMJQ 170535Z AUTO 22007KT CLR 11/03 A3002 RMK AO2 PWINO
KMJQ 170514Z AUTO 23007KT CLR 11/03 A3002 RMK AO2 PWINO
KMJQ 170454Z AUTO 23007KT CLR 12/03 A3002 RMK AO2 PWINO
KMJQ 170435Z AUTO 22009KT CLR 12/03 A3002 RMK AO2 PWINO
KMJQ 170414Z AUTO 22010KT CLR 13/03 A3002 RMK AO2 PWINO
KMJQ 170355Z AUTO 21009KT CLR 13/03 A3002 RMK AO2 PWINO
KMJQ 170335Z AUTO 21009KT CLR 13/03 A3002 RMK AO2 PWINO
KMJQ 170314Z AUTO 21012G16KT CLR 14/03 A3001 RMK AO2 PWINO
KMJQ 170255Z AUTO 21012G18KT CLR 14/03 A3001 RMK AO2 PWINO
KMJQ 170234Z AUTO 20012G19KT CLR 14/03 A3000 RMK AO2 PWINO
KMJQ 170215Z AUTO 20011KT CLR 15/03 A3001 RMK AO2 PWINO
KMJQ 170154Z AUTO 20013G17KT CLR 15/03 A3002 RMK AO2 PWINO
KMJQ 170134Z AUTO 20008KT CLR 13/03 A3003 RMK AO2 PWINO
KMJQ 170115Z AUTO 19008KT CLR 13/03 A3003 RMK AO2 PWINO
KMJQ 170054Z AUTO 19007KT CLR 13/03 A3003 RMK AO2 PWINO
KMJQ 170034Z AUTO 19007KT CLR 13/03 A3004 RMK AO2 PWINO
KMJQ 170015Z AUTO 20008KT CLR 15/03 A3004 RMK AO2 PWINO
KMJQ 162354Z AUTO 20008KT CLR 15/02 A3003 RMK AO2 PWINO
KMJQ 162335Z AUTO 19008KT CLR 16/02 A3003 RMK AO2 PWINO
KMJQ 162314Z AUTO 19008KT CLR 17/02 A3004 RMK AO2 PWINO
KMJQ 162255Z AUTO 20011KT CLR 18/01 A3004 RMK AO2 PWINO
KMJQ 162235Z AUTO 20011G16KT CLR 18/01 A3004 RMK AO2 PWINO
KMJQ 162214Z AUTO 20012G16KT CLR 20/01 A3005 RMK AO2 PWINO
KMJQ 162155Z AUTO 21014G19KT CLR 20/00 A3005 RMK AO2 PWINO
KMJQ 162135Z AUTO 20014G19KT CLR 20/00 A3006 RMK AO2 PWINO
KMJQ 162114Z AUTO 20015G18KT CLR 20/00 A3007 RMK AO2 PWINO
KMJQ 162055Z AUTO 21014KT CLR 20/00 A3007 RMK AO2 PWINO
KMJQ 162035Z AUTO 20013G20KT CLR 20/00 A3008 RMK AO2 PWINO
KMJQ 162014Z AUTO 21014KT SCT110 19/00 A3009 RMK AO2 PWINO
KMJQ 161955Z AUTO 19015G19KT CLR 19/00 A3010 RMK AO2 PWINO
KMJQ 161934Z AUTO 20011G18KT CLR 19/00 A3011 RMK AO2